createdAt,value
2022-10-10T00:02:10.762Z,11.07
2022-10-10T00:04:37.864Z,14.05
2022-10-10T00:07:07.178Z,9.75
2022-10-10T00:09:35.463Z,15.57
2022-10-10T00:12:02.135Z,10.88
2022-10-10T00:14:32.405Z,14.73
2022-10-10T00:17:02.285Z,15.73
2022-10-10T00:19:29.673Z,13.13
2022-10-10T00:22:03.920Z,16.13
2022-10-10T00:24:31.291Z,20.35
2022-10-10T00:26:58.570Z,12.43
2022-10-10T00:29:25.720Z,9.52
2022-10-10T00:31:54.857Z,15.82
2022-10-10T00:34:21.782Z,16.13
2022-10-10T00:36:57.725Z,16.67
2022-10-10T00:39:27.199Z,10.63
2022-10-10T00:41:56.520Z,14.23
2022-10-10T00:44:23.871Z,13.45
2022-10-10T00:46:51.266Z,16.13
2022-10-10T00:49:22.772Z,15.45
2022-10-10T00:51:53.625Z,12.18
2022-10-10T00:54:22.908Z,14.95
2022-10-10T00:56:57.500Z,15.95
2022-10-10T00:59:25.033Z,15.15
2022-10-10T01:01:53.711Z,13.93
2022-10-10T01:04:29.927Z,13.77
2022-10-10T01:06:57.314Z,14.15
2022-10-10T01:09:27.460Z,17.42
2022-10-10T01:12:15.021Z,23.85
2022-10-10T01:15:00.493Z,14.65
2022-10-10T01:17:57.256Z,15.93
2022-10-10T01:20:54.107Z,19.52
2022-10-10T01:23:38.579Z,18.23
2022-10-10T01:26:41.202Z,14.25
2022-10-10T01:29:33.537Z,14.88
2022-10-10T01:32:17.360Z,21.98
2022-10-10T01:34:58.665Z,17.45
2022-10-10T01:37:49.000Z,15.05
2022-10-10T01:40:30.022Z,17.25
2022-10-10T01:43:01.211Z,19.00
2022-10-10T01:45:29.665Z,15.32
2022-10-10T01:48:02.806Z,14.63
2022-10-10T01:50:31.741Z,21.08
2022-10-10T01:53:15.519Z,20.17
2022-10-10T01:55:58.006Z,18.67
2022-10-10T01:58:38.309Z,17.92
2022-10-10T02:01:29.971Z,16.70
2022-10-10T02:04:13.023Z,15.55
2022-10-10T02:07:28.508Z,23.63
2022-10-10T02:09:58.914Z,21.27
2022-10-10T02:12:28.305Z,20.58
2022-10-10T02:15:04.940Z,16.60
2022-10-10T02:17:36.649Z,23.42
2022-10-10T02:20:08.136Z,19.35
2022-10-10T02:22:37.351Z,20.27
2022-10-10T02:25:05.482Z,27.08
2022-10-10T02:27:58.999Z,16.52
2022-10-10T02:30:27.609Z,22.17
2022-10-10T02:33:11.233Z,19.65
2022-10-10T02:35:43.051Z,19.42
2022-10-10T02:38:15.088Z,24.58
2022-10-10T02:40:46.795Z,18.67
2022-10-10T02:43:18.070Z,23.17
2022-10-10T02:45:53.676Z,23.58
2022-10-10T02:48:20.652Z,21.92
2022-10-10T02:50:52.721Z,19.00
2022-10-10T02:53:19.620Z,18.25
2022-10-10T02:55:46.608Z,25.77
2022-10-10T02:58:17.651Z,21.30
2022-10-10T03:00:45.894Z,20.70
2022-10-10T03:03:13.976Z,18.05
2022-10-10T03:05:40.795Z,18.38
2022-10-10T03:08:14.357Z,29.55
2022-10-10T03:10:41.521Z,23.02
2022-10-10T03:13:09.924Z,21.00
2022-10-10T03:15:36.965Z,20.63
2022-10-10T03:18:10.409Z,19.48
2022-10-10T03:20:37.151Z,15.82
2022-10-10T03:23:04.289Z,18.25
2022-10-10T03:25:31.211Z,20.27
2022-10-10T03:27:58.024Z,26.10
2022-10-10T03:30:25.445Z,25.08
2022-10-10T03:32:55.029Z,19.90
2022-10-10T03:35:22.492Z,20.60
2022-10-10T03:37:49.727Z,20.45
2022-10-10T03:40:18.175Z,20.77
2022-10-10T03:42:47.657Z,22.08
2022-10-10T03:45:16.063Z,23.42
2022-10-10T03:47:51.971Z,20.02
2022-10-10T03:50:20.142Z,21.33
2022-10-10T03:52:47.335Z,28.08
2022-10-10T03:55:14.579Z,24.50
2022-10-10T03:57:43.447Z,24.90
2022-10-10T04:00:10.719Z,23.70
2022-10-10T04:02:39.676Z,20.92
2022-10-10T04:05:11.861Z,19.50
2022-10-10T04:07:41.734Z,21.08
2022-10-10T04:10:10.831Z,29.40
2022-10-10T04:12:38.672Z,23.05
2022-10-10T04:15:06.175Z,30.35
2022-10-10T04:17:33.416Z,22.77
2022-10-10T04:20:00.884Z,24.27
2022-10-10T04:22:28.401Z,22.13
2022-10-10T04:24:55.065Z,27.58
2022-10-10T04:27:23.327Z,21.52
2022-10-10T04:29:50.400Z,25.58
2022-10-10T04:32:21.252Z,23.05
2022-10-10T04:34:48.594Z,24.63
2022-10-10T04:37:18.472Z,22.15
2022-10-10T04:39:45.784Z,24.13
2022-10-10T04:42:12.929Z,27.65
2022-10-10T04:44:40.954Z,26.60
2022-10-10T04:47:09.382Z,26.40
2022-10-10T04:49:38.850Z,27.02
2022-10-10T04:52:10.490Z,25.92
2022-10-10T04:54:38.116Z,22.92
2022-10-10T04:57:05.845Z,28.38
2022-10-10T04:59:36.671Z,37.25
2022-10-10T05:02:03.599Z,30.75
2022-10-10T05:04:31.981Z,27.48
2022-10-10T05:06:59.175Z,28.63
2022-10-10T05:09:27.757Z,27.27
2022-10-10T05:12:07.735Z,30.58
2022-10-10T05:14:36.384Z,30.35
2022-10-10T05:17:07.143Z,28.05
2022-10-10T05:19:37.281Z,26.70
2022-10-10T05:22:04.185Z,31.02
2022-10-10T05:24:36.276Z,28.27
2022-10-10T05:27:03.766Z,28.25
2022-10-10T05:29:31.760Z,35.05
2022-10-10T05:32:00.033Z,32.38
2022-10-10T05:34:27.704Z,30.10
2022-10-10T05:36:59.921Z,37.58
2022-10-10T05:39:27.124Z,38.58
2022-10-10T05:41:53.843Z,32.53
2022-10-10T05:44:20.966Z,41.47
2022-10-10T05:46:51.415Z,30.38
2022-10-10T05:49:21.022Z,33.13
2022-10-10T05:51:47.688Z,27.00
2022-10-10T05:54:14.889Z,31.45
2022-10-10T05:56:42.129Z,28.92
2022-10-10T05:59:11.969Z,38.83
2022-10-10T06:01:39.716Z,29.92
2022-10-10T06:04:08.188Z,31.00
2022-10-10T06:06:41.722Z,27.48
2022-10-10T06:09:08.860Z,23.55
2022-10-10T06:11:36.984Z,32.75
2022-10-10T06:14:03.861Z,24.48
2022-10-10T06:16:34.476Z,29.95
2022-10-10T06:19:02.939Z,26.52
2022-10-10T06:21:30.947Z,22.88
2022-10-10T06:23:59.347Z,23.92
2022-10-10T06:26:33.288Z,20.88
2022-10-10T06:29:00.273Z,20.17
2022-10-10T06:31:28.057Z,19.15
2022-10-10T06:33:55.084Z,21.00
2022-10-10T06:36:24.694Z,24.33
2022-10-10T06:38:51.972Z,25.02
2022-10-10T06:41:18.719Z,29.48
2022-10-10T06:43:45.430Z,21.83
2022-10-10T06:46:12.832Z,21.85
2022-10-10T06:48:40.268Z,21.63
2022-10-10T06:51:10.636Z,23.88
2022-10-10T06:53:37.680Z,22.88
2022-10-10T06:56:06.849Z,26.90
2022-10-10T06:58:35.135Z,26.77
2022-10-10T07:01:05.081Z,25.85
2022-10-10T07:03:33.081Z,22.92
2022-10-10T07:06:02.412Z,19.42
2022-10-10T07:08:30.978Z,20.35
2022-10-10T07:10:58.326Z,19.10
2022-10-10T07:13:33.248Z,21.92
2022-10-10T07:16:00.069Z,21.40
2022-10-10T07:18:29.061Z,17.08
2022-10-10T07:21:00.006Z,17.95
2022-10-10T07:23:28.661Z,19.52
2022-10-10T07:26:03.712Z,12.77
2022-10-10T07:28:32.822Z,13.80
2022-10-10T07:31:07.180Z,12.13
2022-10-10T07:33:40.771Z,13.33
2022-10-10T07:36:08.275Z,21.53
2022-10-10T07:38:36.403Z,15.03
2022-10-10T07:41:13.578Z,13.00
2022-10-10T07:43:40.366Z,11.40
2022-10-10T07:46:14.201Z,14.17
2022-10-10T07:48:42.174Z,12.83
2022-10-10T07:51:12.951Z,11.17
2022-10-10T07:53:42.243Z,14.10
2022-10-10T07:56:13.599Z,11.47
2022-10-10T07:58:43.786Z,16.60
2022-10-10T08:01:12.797Z,13.40
2022-10-10T08:03:40.120Z,15.57
2022-10-10T08:06:09.682Z,15.10
2022-10-10T08:08:48.547Z,16.13
2022-10-10T08:11:22.327Z,13.83
2022-10-10T08:13:57.281Z,14.00
2022-10-10T08:16:26.603Z,13.40
2022-10-10T08:18:53.440Z,17.20
2022-10-10T08:21:20.580Z,14.40
2022-10-10T08:23:48.355Z,14.83
2022-10-10T08:26:17.009Z,11.60
2022-10-10T08:28:44.861Z,12.23
2022-10-10T08:31:19.154Z,13.80
2022-10-10T08:33:47.984Z,11.60
2022-10-10T08:36:24.914Z,12.43
2022-10-10T08:38:57.150Z,13.40
2022-10-10T08:42:00.773Z,16.03
2022-10-10T08:44:52.599Z,13.00
2022-10-10T08:47:30.620Z,10.87
2022-10-10T08:50:06.802Z,10.43
2022-10-10T08:52:56.735Z,11.87
2022-10-10T08:55:34.621Z,9.77
2022-10-10T08:58:24.031Z,9.23
2022-10-10T09:01:09.370Z,10.10
2022-10-10T09:03:46.748Z,12.10
2022-10-10T09:06:35.012Z,15.53
2022-10-10T09:09:36.855Z,14.47
2022-10-10T09:12:23.177Z,10.17
2022-10-10T09:15:01.956Z,12.40
2022-10-10T09:17:57.657Z,8.33
2022-10-10T09:20:36.738Z,11.00
2022-10-10T09:23:23.394Z,10.70
2022-10-10T09:26:12.760Z,15.50
2022-10-10T09:28:57.104Z,19.63
2022-10-10T09:31:38.620Z,14.83
2022-10-10T09:34:19.802Z,12.77
2022-10-10T09:36:49.779Z,8.70
2022-10-10T09:39:17.696Z,9.20
2022-10-10T09:42:03.776Z,13.33
2022-10-10T09:44:31.880Z,11.43
2022-10-10T09:47:00.690Z,8.50
2022-10-10T09:49:30.204Z,13.90
2022-10-10T09:51:58.489Z,11.03
2022-10-10T09:54:25.372Z,8.73
2022-10-10T09:56:56.671Z,12.13
2022-10-10T09:59:44.869Z,10.20
2022-10-10T10:02:26.715Z,10.47
2022-10-10T10:04:54.941Z,11.57
2022-10-10T10:07:34.238Z,7.37
2022-10-10T10:10:11.530Z,8.07
2022-10-10T10:12:40.943Z,8.93
2022-10-10T10:15:21.005Z,17.20
2022-10-10T10:18:21.342Z,12.03
2022-10-10T10:21:09.488Z,7.10
2022-10-10T10:23:49.760Z,7.47
2022-10-10T10:26:19.140Z,7.73
2022-10-10T10:28:47.440Z,8.57
2022-10-10T10:31:28.690Z,10.13
2022-10-10T10:34:35.906Z,8.57
2022-10-10T10:37:15.173Z,8.73
2022-10-10T10:40:05.069Z,11.10
2022-10-10T10:42:57.052Z,8.87
2022-10-10T10:45:49.678Z,11.20
2022-10-10T10:48:45.108Z,10.13
2022-10-10T10:51:33.387Z,8.40
2022-10-10T10:54:17.796Z,6.53
2022-10-10T10:56:56.490Z,19.57
2022-10-10T11:00:17.027Z,7.20
2022-10-10T11:03:28.014Z,10.67
2022-10-10T11:06:13.137Z,8.30
2022-10-10T11:08:53.305Z,6.10
2022-10-10T11:11:42.577Z,7.67
2022-10-10T11:14:34.915Z,5.00
2022-10-10T11:17:17.021Z,6.43
2022-10-10T11:20:08.243Z,7.77
2022-10-10T11:22:51.519Z,6.97
2022-10-10T11:25:31.080Z,6.97
2022-10-10T11:28:19.540Z,14.43
2022-10-10T11:31:03.080Z,6.73
2022-10-10T11:33:43.984Z,5.70
2022-10-10T11:36:20.552Z,7.80
2022-10-10T11:39:14.532Z,7.80
2022-10-10T11:42:00.812Z,9.20
2022-10-10T11:44:51.403Z,8.30
2022-10-10T11:47:27.385Z,6.20
2022-10-10T11:50:05.296Z,7.17
2022-10-10T11:52:46.578Z,7.10
2022-10-10T11:55:19.682Z,9.80
2022-10-10T11:58:07.233Z,8.07
2022-10-10T12:00:44.634Z,7.97
2022-10-10T12:03:11.700Z,4.60
2022-10-10T12:05:52.451Z,7.00
2022-10-10T12:08:26.422Z,9.30
2022-10-10T12:11:02.316Z,7.07
2022-10-10T12:13:43.534Z,8.37
2022-10-10T12:16:15.276Z,5.67
2022-10-10T12:19:03.301Z,5.57
2022-10-10T12:21:33.460Z,5.43
2022-10-10T12:24:15.388Z,5.60
2022-10-10T12:27:12.493Z,4.83
2022-10-10T12:30:09.603Z,6.40
2022-10-10T12:32:36.753Z,13.77
2022-10-10T12:35:04.332Z,5.80
2022-10-10T12:37:56.478Z,4.93
2022-10-10T12:40:23.903Z,6.03
2022-10-10T12:43:00.524Z,4.10
2022-10-10T12:45:30.991Z,5.20
2022-10-10T12:48:06.633Z,6.13
2022-10-10T12:50:40.599Z,6.00
2022-10-10T12:53:14.301Z,9.87
2022-10-10T12:56:02.311Z,7.00
2022-10-10T12:58:35.126Z,4.93
2022-10-10T13:01:28.614Z,5.97
2022-10-10T13:03:59.131Z,12.43
2022-10-10T13:06:39.975Z,6.73
2022-10-10T13:09:15.813Z,5.07
2022-10-10T13:11:56.902Z,8.33
2022-10-10T13:14:26.319Z,6.90
2022-10-10T13:16:55.172Z,7.80
2022-10-10T13:19:31.355Z,7.80
2022-10-10T13:22:06.859Z,5.60
2022-10-10T13:24:38.569Z,8.63
2022-10-10T13:27:05.627Z,7.77
2022-10-10T13:29:43.326Z,8.90
2022-10-10T13:32:40.493Z,6.17
2022-10-10T13:35:17.912Z,6.67
2022-10-10T13:37:47.651Z,8.67
2022-10-10T13:40:16.180Z,9.30
2022-10-10T13:42:46.941Z,8.70
2022-10-10T13:45:30.135Z,7.13
2022-10-10T13:48:06.331Z,5.83
2022-10-10T13:50:43.192Z,7.67
2022-10-10T13:53:34.289Z,11.67
2022-10-10T13:56:16.787Z,6.30
2022-10-10T13:59:04.336Z,4.90
2022-10-10T14:01:42.222Z,4.87
2022-10-10T14:04:30.366Z,7.60
2022-10-10T14:07:30.739Z,5.07
2022-10-10T14:10:00.509Z,7.53
2022-10-10T14:12:43.151Z,5.80
2022-10-10T14:15:36.538Z,5.17
2022-10-10T14:18:19.772Z,6.37
2022-10-10T14:20:48.015Z,5.23
2022-10-10T14:23:16.338Z,7.20
2022-10-10T14:25:49.270Z,4.20
2022-10-10T14:28:24.481Z,11.13
2022-10-10T14:30:52.447Z,8.03
2022-10-10T14:33:20.274Z,7.53
2022-10-10T14:35:49.866Z,6.77
2022-10-10T14:38:19.097Z,8.43
2022-10-10T14:40:49.147Z,8.40
2022-10-10T14:43:17.656Z,4.23
2022-10-10T14:45:50.949Z,5.37
2022-10-10T14:48:18.299Z,5.37
2022-10-10T14:50:49.269Z,7.33
2022-10-10T14:53:20.643Z,5.47
2022-10-10T14:55:47.522Z,6.20
2022-10-10T14:58:22.567Z,4.13
2022-10-10T15:00:56.096Z,3.60
2022-10-10T15:03:23.232Z,5.43
2022-10-10T15:05:50.748Z,3.93
2022-10-10T15:08:20.099Z,8.80
2022-10-10T15:10:47.288Z,6.70
2022-10-10T15:13:18.316Z,10.87
2022-10-10T15:15:47.230Z,4.10
2022-10-10T15:18:40.933Z,3.70
2022-10-10T15:21:16.217Z,15.53
2022-10-10T15:23:44.404Z,7.03
2022-10-10T15:26:11.645Z,4.87
2022-10-10T15:28:40.630Z,4.40
2022-10-10T15:31:08.687Z,5.73
2022-10-10T15:33:35.656Z,10.03
2022-10-10T15:36:10.200Z,7.20
2022-10-10T15:38:40.284Z,12.07
2022-10-10T15:41:10.185Z,4.20
2022-10-10T15:44:01.831Z,10.83
2022-10-10T15:46:32.843Z,4.87
2022-10-10T15:49:03.821Z,6.03
2022-10-10T15:51:40.207Z,6.10
2022-10-10T15:54:13.231Z,5.97
2022-10-10T15:56:40.973Z,9.50
2022-10-10T15:59:15.594Z,8.00
2022-10-10T16:01:44.830Z,6.43
2022-10-10T16:04:14.303Z,7.13
2022-10-10T16:06:46.770Z,7.43
2022-10-10T16:09:33.926Z,6.33
2022-10-10T16:12:13.370Z,4.73
2022-10-10T16:14:41.536Z,5.57
2022-10-10T16:17:08.709Z,5.27
2022-10-10T16:19:38.449Z,10.67
2022-10-10T16:22:05.384Z,5.37
2022-10-10T16:24:32.993Z,7.87
2022-10-10T16:27:06.751Z,6.30
2022-10-10T16:29:35.767Z,7.90
2022-10-10T16:32:06.905Z,12.07
2022-10-10T16:34:40.158Z,6.93
2022-10-10T17:03:40.532Z,6.23
2022-10-10T17:11:30.563Z,6.63
2022-10-10T17:14:01.632Z,9.47
2022-10-10T17:19:13.797Z,9.43
2022-10-10T17:21:47.922Z,14.70
2022-10-10T17:26:59.652Z,10.52
2022-10-10T17:34:44.203Z,7.85
2022-10-10T17:37:11.910Z,10.83
2022-10-10T17:39:39.387Z,8.40
2022-10-10T17:44:49.619Z,9.13
2022-10-10T17:47:19.927Z,9.17
2022-10-10T17:49:50.147Z,9.77
2022-10-10T17:52:21.478Z,13.00
2022-10-10T17:54:49.884Z,11.53
2022-10-10T17:57:17.318Z,8.43
2022-10-10T17:59:48.086Z,9.65
2022-10-10T18:02:19.600Z,10.38
2022-10-10T18:04:46.647Z,12.65
2022-10-10T18:20:43.598Z,8.18
2022-10-10T18:31:22.528Z,15.40
2022-10-10T18:33:51.590Z,11.80
2022-10-10T18:36:23.908Z,9.95
2022-10-10T18:38:51.784Z,8.00
2022-10-10T18:41:24.576Z,9.05
2022-10-10T18:43:57.857Z,11.18
2022-10-10T18:46:25.837Z,14.35
2022-10-10T18:48:54.368Z,7.35
2022-10-10T18:51:32.568Z,8.00
2022-10-10T18:54:12.015Z,13.52
2022-10-10T18:56:46.131Z,10.95
2022-10-10T18:59:16.294Z,10.60
2022-10-10T19:01:52.791Z,15.90
2022-10-10T19:04:31.835Z,8.48
2022-10-10T19:07:00.435Z,12.43
2022-10-10T19:09:30.575Z,10.98
2022-10-10T19:11:59.437Z,10.80
2022-10-10T19:17:10.268Z,10.85
2022-10-10T19:19:37.703Z,14.30
2022-10-10T19:24:48.634Z,9.00
2022-10-10T19:27:16.563Z,9.90
2022-10-10T19:29:43.760Z,11.65
2022-10-10T19:32:10.497Z,16.33
2022-10-10T19:34:41.513Z,10.32
2022-10-10T19:37:48.184Z,9.57
2022-10-10T19:40:21.842Z,10.70
2022-10-10T19:42:52.594Z,9.77
2022-10-10T19:45:21.709Z,13.32
2022-10-10T19:47:52.588Z,13.93
2022-10-10T19:53:17.895Z,10.55
2022-10-10T19:56:05.654Z,15.82
2022-10-10T19:58:45.483Z,12.32
2022-10-10T20:04:15.376Z,14.55
2022-10-10T20:06:50.565Z,13.38
2022-10-10T20:09:18.942Z,11.80
2022-10-10T20:11:48.922Z,11.25
2022-10-10T20:14:16.255Z,14.43
2022-10-10T20:16:44.123Z,11.80
2022-10-10T20:19:11.032Z,14.13
2022-10-10T20:21:40.968Z,13.15
2022-10-10T20:24:10.289Z,13.70
2022-10-10T20:26:39.232Z,12.82
2022-10-10T20:29:08.185Z,13.45
2022-10-10T20:31:36.726Z,12.95
2022-10-10T20:34:06.287Z,13.77
2022-10-10T20:36:37.010Z,11.93
2022-10-10T20:39:09.729Z,11.18
2022-10-10T20:41:39.320Z,12.50
2022-10-10T20:44:16.401Z,13.57
2022-10-10T20:46:58.695Z,12.23
2022-10-10T20:52:24.470Z,12.80
2022-10-10T20:54:58.965Z,12.48
2022-10-10T20:57:30.557Z,15.50
2022-10-10T21:00:00.450Z,9.85
2022-10-10T21:02:30.831Z,11.77
2022-10-10T21:04:59.440Z,11.73
2022-10-10T21:07:34.531Z,14.10
2022-10-10T21:10:06.646Z,9.18
2022-10-10T21:12:38.948Z,9.90
2022-10-10T21:15:09.025Z,11.68
2022-10-10T21:17:42.695Z,14.10
2022-10-10T21:20:15.618Z,11.05
2022-10-10T21:22:46.074Z,12.40
2022-10-10T21:25:31.127Z,9.93
2022-10-10T21:28:05.012Z,14.13
2022-10-10T21:30:40.908Z,10.05
2022-10-10T21:33:08.559Z,19.40
2022-10-10T21:35:39.280Z,10.20
2022-10-10T21:38:11.702Z,10.05
2022-10-10T21:40:38.653Z,13.38
2022-10-10T21:43:08.299Z,9.98
2022-10-10T21:45:43.447Z,10.52
2022-10-10T21:48:23.314Z,12.18
2022-10-10T21:50:57.001Z,11.65
2022-10-10T21:53:32.493Z,10.40
2022-10-10T21:56:07.288Z,11.45
2022-10-10T21:58:40.324Z,11.50
2022-10-10T22:01:35.401Z,10.93
2022-10-10T22:04:06.232Z,9.27
2022-10-10T22:06:36.158Z,12.52
2022-10-10T22:09:07.077Z,12.77
2022-10-10T22:11:38.089Z,12.35
2022-10-10T22:14:12.026Z,11.45
2022-10-10T22:16:39.266Z,13.85
2022-10-10T22:19:07.785Z,11.07
2022-10-10T22:21:43.333Z,11.35
2022-10-10T22:24:13.517Z,9.85
2022-10-10T22:26:42.654Z,17.13
2022-10-10T22:29:11.096Z,11.35
2022-10-10T22:31:39.462Z,12.55
2022-10-10T22:34:14.016Z,10.30
2022-10-10T22:36:43.505Z,10.80
2022-10-10T22:39:12.666Z,21.13
2022-10-10T22:41:43.319Z,13.32
2022-10-10T22:44:10.572Z,12.77
2022-10-10T22:46:40.115Z,10.65
2022-10-10T22:49:11.504Z,16.48
2022-10-10T22:51:43.110Z,14.68
2022-10-10T22:54:14.761Z,14.43
2022-10-10T22:56:42.349Z,12.75
2022-10-10T22:59:11.089Z,11.95
2022-10-10T23:01:39.387Z,11.00
2022-10-10T23:04:10.895Z,12.73
2022-10-10T23:06:39.476Z,10.57
2022-10-10T23:09:10.422Z,12.05
2022-10-10T23:11:40.474Z,11.05
2022-10-10T23:14:08.136Z,10.32
2022-10-10T23:16:37.460Z,10.82
2022-10-10T23:19:08.780Z,13.50
2022-10-10T23:21:35.861Z,12.30
2022-10-10T23:24:05.199Z,9.95
2022-10-10T23:26:39.497Z,12.35
2022-10-10T23:29:13.217Z,9.68
2022-10-10T23:31:46.655Z,12.60
2022-10-10T23:34:15.053Z,12.23
2022-10-10T23:36:44.298Z,15.13
2022-10-10T23:39:11.655Z,12.10
2022-10-10T23:41:39.957Z,19.98
2022-10-10T23:44:07.175Z,10.85
2022-10-10T23:46:33.959Z,14.38
2022-10-10T23:49:02.573Z,13.98
2022-10-10T23:51:30.579Z,14.77
2022-10-10T23:53:59.164Z,14.20
2022-10-10T23:56:29.275Z,15.25
2022-10-10T23:58:58.169Z,11.25
